createdAt,value
2019-05-29T00:01:37.489Z,11.32
2019-05-29T00:03:44.564Z,11.30
2019-05-29T00:05:52.481Z,11.30
2019-05-29T00:07:58.722Z,11.32
2019-05-29T00:10:08.980Z,11.32
2019-05-29T00:12:19.592Z,11.35
2019-05-29T00:14:27.524Z,11.34
2019-05-29T00:16:31.643Z,11.37
2019-05-29T00:18:38.953Z,11.39
2019-05-29T00:20:47.178Z,11.35
2019-05-29T00:22:55.232Z,11.32
2019-05-29T00:25:01.491Z,11.32
2019-05-29T00:29:13.755Z,11.31
2019-05-29T00:31:20.314Z,11.27
2019-05-29T00:33:26.654Z,11.23
2019-05-29T00:35:34.670Z,11.21
2019-05-29T00:37:41.016Z,11.23
2019-05-29T00:39:48.326Z,11.23
2019-05-29T00:41:54.670Z,11.20
2019-05-29T00:44:01.940Z,11.27
2019-05-29T00:46:09.106Z,11.22
2019-05-29T00:48:17.846Z,11.20
2019-05-29T00:50:24.305Z,11.22
2019-05-29T00:52:30.683Z,11.19
2019-05-29T00:54:36.950Z,11.12
2019-05-29T00:56:43.326Z,11.11
2019-05-29T00:58:49.678Z,11.12
2019-05-29T01:00:58.057Z,11.04
2019-05-29T01:03:06.306Z,10.99
2019-05-29T01:05:13.862Z,11.05
2019-05-29T01:07:21.566Z,11.09
2019-05-29T01:09:28.338Z,11.07
2019-05-29T01:11:35.862Z,11.10
2019-05-29T01:13:42.517Z,11.15
2019-05-29T01:15:49.346Z,11.10
2019-05-29T01:17:56.179Z,11.02
2019-05-29T01:20:05.194Z,10.99
2019-05-29T01:22:12.272Z,10.96
2019-05-29T01:24:20.617Z,10.90
2019-05-29T01:26:28.194Z,10.83
2019-05-29T01:28:35.105Z,10.84
2019-05-29T01:30:41.829Z,10.85
2019-05-29T01:32:48.654Z,10.96
2019-05-29T01:34:55.445Z,10.90
2019-05-29T01:37:02.258Z,10.86
2019-05-29T01:39:15.129Z,10.83
2019-05-29T01:41:22.129Z,10.85
2019-05-29T01:43:28.950Z,10.80
2019-05-29T01:45:37.237Z,10.75
2019-05-29T01:47:46.140Z,10.75
2019-05-29T01:49:56.301Z,10.69
2019-05-29T01:52:05.098Z,10.62
2019-05-29T01:54:11.530Z,10.62
2019-05-29T01:56:21.912Z,10.50
2019-05-29T01:58:28.606Z,10.48
2019-05-29T02:00:35.407Z,10.45
2019-05-29T02:02:43.706Z,10.48
2019-05-29T02:04:53.286Z,10.48
2019-05-29T02:07:01.578Z,10.39
2019-05-29T02:09:09.059Z,10.39
2019-05-29T02:11:17.171Z,10.35
2019-05-29T02:13:23.873Z,10.36
2019-05-29T02:15:33.947Z,10.24
2019-05-29T02:17:40.653Z,10.33
2019-05-29T02:19:48.733Z,10.38
2019-05-29T02:21:55.503Z,10.22
2019-05-29T02:24:02.278Z,10.15
2019-05-29T02:26:10.173Z,10.17
2019-05-29T02:28:20.505Z,10.21
2019-05-29T02:30:30.274Z,10.17
2019-05-29T02:32:34.970Z,10.16
2019-05-29T02:34:41.500Z,10.14
2019-05-29T02:36:48.285Z,10.11
2019-05-29T02:38:54.993Z,10.12
2019-05-29T02:41:01.578Z,10.16
2019-05-29T02:43:08.624Z,10.16
2019-05-29T02:45:17.138Z,10.09
2019-05-29T02:47:23.651Z,10.10
2019-05-29T02:49:30.575Z,10.10
2019-05-29T02:51:38.105Z,10.09
2019-05-29T02:53:44.462Z,10.13
2019-05-29T02:55:51.180Z,10.15
2019-05-29T02:57:59.347Z,10.14
2019-05-29T03:00:09.282Z,10.07
2019-05-29T03:02:15.642Z,10.08
2019-05-29T03:04:24.071Z,10.11
2019-05-29T03:06:32.433Z,10.15
2019-05-29T03:08:40.763Z,10.11
2019-05-29T03:10:48.105Z,10.08
2019-05-29T03:12:54.719Z,10.06
2019-05-29T03:15:01.607Z,10.05
2019-05-29T03:17:10.782Z,10.15
2019-05-29T03:19:18.420Z,10.15
2019-05-29T03:21:26.044Z,10.06
2019-05-29T03:23:35.177Z,10.05
2019-05-29T03:25:41.054Z,10.00
2019-05-29T03:27:49.615Z,10.10
2019-05-29T03:29:56.298Z,10.14
2019-05-29T03:32:04.146Z,10.19
2019-05-29T03:34:10.858Z,10.06
2019-05-29T03:36:17.500Z,9.94
2019-05-29T03:38:23.850Z,9.98
2019-05-29T03:40:32.821Z,10.11
2019-05-29T03:42:40.382Z,9.98
2019-05-29T03:44:48.952Z,10.01
2019-05-29T03:46:57.689Z,9.98
2019-05-29T03:49:04.592Z,9.97
2019-05-29T03:51:11.239Z,9.91
2019-05-29T03:53:18.457Z,9.89
2019-05-29T03:55:27.303Z,9.93
2019-05-29T03:57:35.942Z,10.09
2019-05-29T03:59:44.507Z,9.97
2019-05-29T04:01:51.003Z,9.90
2019-05-29T04:03:59.673Z,9.84
2019-05-29T04:06:07.850Z,9.95
2019-05-29T04:08:14.462Z,9.97
2019-05-29T04:10:34.183Z,10.08
2019-05-29T04:12:38.923Z,10.05
2019-05-29T04:14:50.068Z,10.08
2019-05-29T04:17:00.291Z,10.10
2019-05-29T04:19:07.329Z,10.08
2019-05-29T04:21:16.623Z,10.02
2019-05-29T04:23:27.824Z,10.20
2019-05-29T04:25:41.744Z,10.15
2019-05-29T04:27:48.710Z,10.16
2019-05-29T04:30:00.699Z,10.15
2019-05-29T04:32:08.180Z,10.16
2019-05-29T04:34:14.975Z,10.32
2019-05-29T04:36:22.588Z,10.32
2019-05-29T04:38:33.870Z,10.34
2019-05-29T04:40:42.236Z,10.41
2019-05-29T04:42:51.968Z,10.51
2019-05-29T04:44:58.491Z,10.64
2019-05-29T04:47:10.791Z,10.97
2019-05-29T04:49:13.048Z,11.14
2019-05-29T04:51:19.428Z,11.11
2019-05-29T04:53:29.258Z,11.08
2019-05-29T04:55:37.014Z,11.06
2019-05-29T04:57:44.996Z,11.11
2019-05-29T04:59:53.165Z,11.39
2019-05-29T05:02:00.408Z,11.36
2019-05-29T05:04:07.250Z,11.52
2019-05-29T05:06:13.841Z,11.21
2019-05-29T05:08:22.152Z,11.20
2019-05-29T05:10:42.471Z,11.18
2019-05-29T05:12:49.164Z,11.10
2019-05-29T05:14:56.454Z,11.22
2019-05-29T05:17:03.222Z,11.07
2019-05-29T05:19:09.891Z,10.91
2019-05-29T05:21:17.158Z,11.00
2019-05-29T05:23:23.803Z,11.00
2019-05-29T05:25:30.660Z,11.12
2019-05-29T05:27:38.355Z,11.06
2019-05-29T05:29:46.233Z,10.79
2019-05-29T05:31:52.665Z,10.87
2019-05-29T05:33:59.435Z,10.85
2019-05-29T05:36:07.081Z,11.07
2019-05-29T05:38:14.306Z,11.09
2019-05-29T05:40:22.480Z,10.81
2019-05-29T05:42:29.205Z,10.76
2019-05-29T05:44:39.426Z,10.97
2019-05-29T05:46:46.042Z,11.23
2019-05-29T05:48:54.666Z,11.45
2019-05-29T05:51:02.878Z,11.93
2019-05-29T05:53:09.668Z,12.02
2019-05-29T05:55:17.200Z,12.20
2019-05-29T05:57:23.720Z,12.43
2019-05-29T05:59:30.101Z,12.60
2019-05-29T06:01:37.917Z,12.58
2019-05-29T06:03:44.701Z,12.75
2019-05-29T06:05:51.504Z,12.64
2019-05-29T06:07:59.286Z,12.30
2019-05-29T06:10:08.770Z,12.21
2019-05-29T06:12:15.765Z,12.10
2019-05-29T06:14:22.362Z,11.98
2019-05-29T06:16:29.332Z,12.01
2019-05-29T06:18:36.556Z,11.98
2019-05-29T06:20:45.275Z,11.96
2019-05-29T06:22:53.548Z,11.79
2019-05-29T06:25:00.436Z,11.92
2019-05-29T06:27:08.360Z,11.87
2019-05-29T06:29:15.022Z,11.84
2019-05-29T06:31:21.597Z,11.75
2019-05-29T06:33:28.359Z,11.86
2019-05-29T06:35:35.834Z,12.13
2019-05-29T06:37:43.771Z,12.28
2019-05-29T06:39:50.449Z,12.29
2019-05-29T06:41:57.640Z,12.30
2019-05-29T06:44:04.487Z,12.41
2019-05-29T06:46:11.052Z,12.50
2019-05-29T06:48:59.008Z,12.57
2019-05-29T06:50:39.300Z,12.57
2019-05-29T06:52:46.183Z,12.45
2019-05-29T06:54:53.195Z,12.47
2019-05-29T06:56:59.502Z,12.41
2019-05-29T06:59:06.268Z,12.65
2019-05-29T07:01:12.979Z,12.63
2019-05-29T07:03:19.438Z,12.63
2019-05-29T07:05:26.270Z,12.70
2019-05-29T07:07:33.375Z,12.72
2019-05-29T07:09:41.067Z,12.80
2019-05-29T07:11:50.157Z,13.13
2019-05-29T07:13:56.737Z,13.35
2019-05-29T07:16:03.707Z,13.20
2019-05-29T07:18:11.314Z,13.29
2019-05-29T07:20:18.004Z,13.29
2019-05-29T07:22:24.511Z,13.34
2019-05-29T07:24:31.257Z,13.47
2019-05-29T07:26:38.902Z,13.42
2019-05-29T07:29:03.038Z,13.52
2019-05-29T07:31:01.952Z,13.73
2019-05-29T07:33:02.666Z,14.04
2019-05-29T07:35:09.761Z,13.82
2019-05-29T07:37:19.871Z,13.92
2019-05-29T07:39:26.498Z,13.78
2019-05-29T07:41:33.114Z,13.72
2019-05-29T07:43:40.113Z,13.70
2019-05-29T07:45:48.245Z,14.03
2019-05-29T07:47:56.813Z,14.02
2019-05-29T07:50:03.503Z,14.04
2019-05-29T07:52:11.752Z,14.22
2019-05-29T07:54:19.307Z,14.44
2019-05-29T07:56:26.057Z,14.73
2019-05-29T07:58:32.823Z,14.86
2019-05-29T08:01:02.656Z,14.95
2019-05-29T08:02:47.762Z,14.98
2019-05-29T08:04:54.791Z,14.71
2019-05-29T08:07:01.630Z,14.54
2019-05-29T08:09:09.649Z,14.33
2019-05-29T08:11:16.227Z,13.90
2019-05-29T08:13:22.969Z,13.58
2019-05-29T08:15:29.620Z,13.48
2019-05-29T08:17:39.854Z,13.61
2019-05-29T08:20:02.654Z,13.70
2019-05-29T08:21:58.524Z,13.51
2019-05-29T08:24:05.275Z,13.52
2019-05-29T08:26:12.068Z,13.81
2019-05-29T08:28:18.821Z,13.90
2019-05-29T08:30:26.573Z,14.21
2019-05-29T08:32:34.024Z,14.18
2019-05-29T08:34:42.996Z,13.96
2019-05-29T08:37:04.781Z,13.84
2019-05-29T08:38:59.899Z,14.03
2019-05-29T08:41:12.575Z,14.09
2019-05-29T08:43:29.647Z,14.28
2019-05-29T08:45:38.897Z,14.59
2019-05-29T08:47:46.057Z,14.67
2019-05-29T08:49:54.779Z,14.76
2019-05-29T08:52:11.995Z,14.96
2019-05-29T08:54:23.422Z,15.23
2019-05-29T08:56:19.821Z,15.07
2019-05-29T08:58:27.804Z,14.99
2019-05-29T09:00:34.908Z,15.19
2019-05-29T09:02:42.600Z,15.23
2019-05-29T09:04:52.984Z,15.15
2019-05-29T09:06:59.012Z,15.28
2019-05-29T09:09:07.639Z,15.35
2019-05-29T09:11:15.503Z,15.41
2019-05-29T09:13:22.603Z,15.60
2019-05-29T09:15:30.586Z,15.68
2019-05-29T09:17:38.968Z,15.67
2019-05-29T09:19:46.483Z,15.50
2019-05-29T09:21:53.448Z,15.34
2019-05-29T09:24:00.101Z,15.27
2019-05-29T09:26:15.931Z,15.51
2019-05-29T09:28:19.978Z,16.01
2019-05-29T09:30:26.316Z,16.01
2019-05-29T09:32:49.416Z,15.73
2019-05-29T09:34:41.883Z,15.90
2019-05-29T09:36:48.540Z,16.16
2019-05-29T09:38:55.538Z,16.22
2019-05-29T09:41:02.893Z,16.35
2019-05-29T09:43:09.449Z,16.12
2019-05-29T09:45:17.896Z,15.66
2019-05-29T09:47:26.255Z,15.37
2019-05-29T09:49:33.638Z,15.51
2019-05-29T09:51:40.387Z,15.80
2019-05-29T09:53:47.428Z,16.09
2019-05-29T09:55:57.003Z,16.16
2019-05-29T09:58:03.511Z,16.01
2019-05-29T10:00:12.437Z,16.25
2019-05-29T10:02:19.472Z,16.69
2019-05-29T10:04:26.118Z,16.74
2019-05-29T10:06:34.414Z,16.68
2019-05-29T10:08:41.379Z,16.63
2019-05-29T10:10:48.189Z,16.53
2019-05-29T10:12:55.248Z,16.58
2019-05-29T10:15:02.906Z,16.60
2019-05-29T10:17:12.782Z,16.38
2019-05-29T10:19:18.138Z,16.46
2019-05-29T10:21:39.116Z,16.47
2019-05-29T10:23:34.235Z,16.54
2019-05-29T10:25:41.221Z,16.77
2019-05-29T10:27:47.873Z,16.92
2019-05-29T10:29:54.563Z,16.82
2019-05-29T10:32:01.604Z,16.88
2019-05-29T10:34:09.337Z,16.95
2019-05-29T10:36:16.221Z,16.91
2019-05-29T10:38:23.346Z,16.95
2019-05-29T10:40:30.283Z,17.14
2019-05-29T10:42:37.665Z,17.21
2019-05-29T10:44:46.901Z,17.26
2019-05-29T10:46:54.716Z,17.33
2019-05-29T10:49:04.465Z,17.55
2019-05-29T10:51:09.630Z,17.93
2019-05-29T10:53:16.729Z,17.81
2019-05-29T10:55:24.741Z,17.54
2019-05-29T10:57:31.390Z,17.20
2019-05-29T10:59:39.149Z,17.25
2019-05-29T11:01:46.939Z,17.48
2019-05-29T11:03:53.924Z,18.10
2019-05-29T11:06:00.611Z,18.16
2019-05-29T11:08:07.309Z,17.81
2019-05-29T11:10:16.506Z,17.64
2019-05-29T11:12:23.137Z,17.39
2019-05-29T11:14:31.600Z,17.02
2019-05-29T11:16:39.847Z,16.97
2019-05-29T11:18:47.476Z,17.15
2019-05-29T11:20:58.260Z,17.39
2019-05-29T11:23:05.531Z,17.41
2019-05-29T11:25:22.633Z,17.48
2019-05-29T11:27:20.985Z,17.34
2019-05-29T11:29:27.507Z,17.03
2019-05-29T11:31:34.730Z,16.77
2019-05-29T11:33:41.380Z,16.89
2019-05-29T11:36:00.822Z,17.11
2019-05-29T11:37:58.838Z,17.07
2019-05-29T11:40:08.158Z,16.90
2019-05-29T11:42:27.031Z,16.69
2019-05-29T11:44:23.052Z,16.73
2019-05-29T11:46:30.186Z,16.81
2019-05-29T11:48:36.853Z,17.13
2019-05-29T11:50:44.385Z,17.43
2019-05-29T11:52:52.245Z,17.74
2019-05-29T11:55:00.070Z,17.74
2019-05-29T11:57:09.757Z,17.67
2019-05-29T11:59:16.759Z,17.45
2019-05-29T12:01:24.263Z,17.60
2019-05-29T12:03:31.895Z,17.80
2019-05-29T12:05:40.235Z,17.74
2019-05-29T12:07:48.117Z,17.46
2019-05-29T12:09:57.425Z,17.25
2019-05-29T12:12:03.975Z,17.18
2019-05-29T12:14:10.970Z,16.89
2019-05-29T12:16:17.667Z,16.81
2019-05-29T12:18:25.482Z,17.01
2019-05-29T12:20:31.947Z,17.29
2019-05-29T12:22:38.560Z,17.41
2019-05-29T12:24:45.390Z,17.19
2019-05-29T12:26:52.443Z,17.06
2019-05-29T12:29:08.650Z,17.32
2019-05-29T12:31:08.273Z,17.44
2019-05-29T12:33:14.942Z,17.65
2019-05-29T12:35:21.693Z,17.92
2019-05-29T12:37:48.940Z,17.86
2019-05-29T12:39:57.443Z,17.92
2019-05-29T12:42:04.546Z,17.85
2019-05-29T12:44:11.460Z,17.68
2019-05-29T12:46:18.360Z,17.62
2019-05-29T12:48:25.305Z,17.52
2019-05-29T12:50:34.471Z,17.68
2019-05-29T12:52:43.024Z,17.72
2019-05-29T12:54:51.262Z,17.87
2019-05-29T12:56:59.942Z,18.01
2019-05-29T12:59:06.919Z,17.87
2019-05-29T13:01:13.523Z,17.65
2019-05-29T13:03:20.353Z,17.58
2019-05-29T13:05:27.885Z,17.65
2019-05-29T13:07:35.885Z,17.54
2019-05-29T13:09:45.476Z,17.32
2019-05-29T13:11:52.355Z,17.16
2019-05-29T13:14:00.484Z,17.24
2019-05-29T13:16:07.280Z,17.27
2019-05-29T13:18:14.093Z,17.28
2019-05-29T13:20:22.552Z,17.43
2019-05-29T13:22:29.455Z,17.42
2019-05-29T13:24:36.193Z,17.21
2019-05-29T13:26:42.682Z,17.14
2019-05-29T13:28:49.417Z,17.31
2019-05-29T13:30:57.701Z,17.38
2019-05-29T13:33:07.451Z,17.54
2019-05-29T13:35:15.862Z,17.89
2019-05-29T13:37:22.757Z,18.04
2019-05-29T13:39:30.944Z,18.36
2019-05-29T13:41:37.315Z,18.59
2019-05-29T13:43:45.979Z,18.65
2019-05-29T13:45:52.732Z,18.42
2019-05-29T13:48:01.207Z,18.34
2019-05-29T13:50:12.952Z,18.45
2019-05-29T13:52:19.639Z,18.36
2019-05-29T13:54:26.526Z,18.45
2019-05-29T13:56:33.503Z,18.37
2019-05-29T13:58:41.468Z,18.46
2019-05-29T14:00:48.306Z,18.82
2019-05-29T14:02:55.033Z,18.90
2019-05-29T14:05:02.791Z,19.09
2019-05-29T14:07:09.833Z,19.06
2019-05-29T14:09:16.275Z,18.68
2019-05-29T14:11:22.822Z,18.22
2019-05-29T14:13:29.664Z,18.05
2019-05-29T14:15:39.852Z,17.78
2019-05-29T14:17:48.161Z,17.75
2019-05-29T14:19:55.176Z,17.66
2019-05-29T14:22:03.577Z,17.87
2019-05-29T14:24:26.170Z,17.88
2019-05-29T14:26:20.063Z,18.02
2019-05-29T14:28:26.788Z,17.99
2019-05-29T14:30:36.500Z,18.04
2019-05-29T14:32:43.656Z,17.82
2019-05-29T14:34:50.357Z,17.83
2019-05-29T14:36:57.616Z,17.80
2019-05-29T14:39:05.816Z,18.01
2019-05-29T14:41:12.544Z,18.22
2019-05-29T14:43:19.114Z,18.41
2019-05-29T14:45:26.172Z,18.51
2019-05-29T14:47:33.016Z,18.62
2019-05-29T14:49:39.976Z,18.89
2019-05-29T14:52:08.686Z,18.66
2019-05-29T14:54:15.822Z,18.68
2019-05-29T14:56:22.668Z,18.52
2019-05-29T14:58:29.805Z,18.49
2019-05-29T15:00:36.507Z,18.60
2019-05-29T15:02:43.147Z,18.70
2019-05-29T15:04:49.882Z,18.63
2019-05-29T15:06:56.619Z,18.78
2019-05-29T15:09:05.539Z,18.91
2019-05-29T15:11:12.163Z,19.01
2019-05-29T15:13:19.157Z,18.86
2019-05-29T15:15:27.162Z,18.52
2019-05-29T15:17:33.903Z,18.27
2019-05-29T15:19:40.555Z,18.30
2019-05-29T15:21:48.544Z,18.20
2019-05-29T15:23:55.364Z,18.40
2019-05-29T15:26:03.311Z,18.58
2019-05-29T15:28:13.566Z,18.44
2019-05-29T15:30:23.031Z,18.68
2019-05-29T15:32:27.526Z,18.71
2019-05-29T15:34:34.193Z,18.35
2019-05-29T15:36:41.013Z,18.36
2019-05-29T15:38:48.157Z,18.47
2019-05-29T15:40:54.919Z,18.35
2019-05-29T15:43:01.906Z,18.27
2019-05-29T15:45:11.854Z,18.59
2019-05-29T15:47:18.743Z,18.44
2019-05-29T15:49:25.706Z,18.55
2019-05-29T15:51:33.803Z,18.76
2019-05-29T15:53:40.680Z,18.71
2019-05-29T15:55:47.308Z,18.65
2019-05-29T15:57:54.162Z,18.87
2019-05-29T16:00:00.907Z,18.96
2019-05-29T16:02:09.362Z,19.09
2019-05-29T16:04:16.310Z,18.73
2019-05-29T16:06:23.463Z,18.75
2019-05-29T16:08:29.897Z,18.94
2019-05-29T16:10:36.578Z,19.02
2019-05-29T16:12:44.357Z,19.05
2019-05-29T16:14:52.391Z,18.91
2019-05-29T16:16:59.297Z,18.79
2019-05-29T16:19:06.022Z,18.93
2019-05-29T16:21:12.684Z,18.89
2019-05-29T16:23:33.241Z,18.83
2019-05-29T16:25:39.501Z,18.84
2019-05-29T16:27:36.536Z,18.98
2019-05-29T16:29:43.280Z,19.13
2019-05-29T16:31:50.102Z,19.25
2019-05-29T16:33:57.958Z,19.42
2019-05-29T16:36:07.229Z,19.46
2019-05-29T16:38:15.819Z,19.16
2019-05-29T16:40:24.340Z,18.76
2019-05-29T16:42:30.985Z,18.69
2019-05-29T16:44:38.001Z,18.60
2019-05-29T16:46:46.416Z,18.48
2019-05-29T16:48:56.080Z,18.46
2019-05-29T16:51:02.939Z,18.16
2019-05-29T16:53:12.590Z,17.94
2019-05-29T16:55:20.921Z,17.64
2019-05-29T16:57:27.799Z,17.47
2019-05-29T16:59:34.607Z,17.34
2019-05-29T17:01:42.029Z,17.18
2019-05-29T17:03:48.748Z,17.00
2019-05-29T17:05:55.635Z,16.88
2019-05-29T17:08:02.367Z,16.73
2019-05-29T17:10:10.514Z,16.71
2019-05-29T17:12:18.382Z,16.61
2019-05-29T17:14:25.253Z,16.55
2019-05-29T17:16:32.964Z,16.56
2019-05-29T17:18:39.749Z,16.49
2019-05-29T17:20:47.736Z,16.44
2019-05-29T17:22:54.904Z,16.38
2019-05-29T17:25:03.011Z,16.33
2019-05-29T17:27:09.888Z,16.27
2019-05-29T17:29:17.034Z,16.19
2019-05-29T17:31:25.690Z,16.13
2019-05-29T17:33:32.861Z,16.07
2019-05-29T17:35:39.464Z,16.01
2019-05-29T17:37:46.408Z,15.97
2019-05-29T17:39:53.251Z,15.93
2019-05-29T17:42:02.265Z,15.89
2019-05-29T17:44:09.577Z,15.80
2019-05-29T17:46:17.313Z,15.75
2019-05-29T17:48:26.302Z,15.61
2019-05-29T17:50:33.172Z,15.52
2019-05-29T17:52:40.208Z,15.41
2019-05-29T17:54:47.275Z,15.33
2019-05-29T17:56:54.227Z,15.27
2019-05-29T17:59:02.115Z,15.19
2019-05-29T18:01:10.143Z,15.17
2019-05-29T18:03:18.034Z,15.12
2019-05-29T18:05:27.163Z,15.10
2019-05-29T18:07:35.449Z,15.04
2019-05-29T18:09:43.378Z,15.00
2019-05-29T18:11:50.363Z,14.93
2019-05-29T18:13:57.276Z,14.89
2019-05-29T18:16:04.574Z,14.86
2019-05-29T18:18:11.291Z,14.81
2019-05-29T18:20:19.625Z,14.75
2019-05-29T18:22:27.762Z,14.71
2019-05-29T18:24:36.097Z,14.61
2019-05-29T18:26:47.143Z,14.54
2019-05-29T18:28:56.471Z,14.50
2019-05-29T18:31:03.964Z,14.41
2019-05-29T18:33:11.248Z,14.34
2019-05-29T18:35:19.027Z,14.29
2019-05-29T18:37:29.052Z,14.23
2019-05-29T18:39:39.039Z,14.15
2019-05-29T18:41:51.269Z,14.06
2019-05-29T18:43:58.816Z,14.01
2019-05-29T18:46:05.799Z,13.95
2019-05-29T18:48:14.113Z,13.90
2019-05-29T18:50:23.494Z,13.84
2019-05-29T18:52:32.723Z,13.77
2019-05-29T18:54:39.905Z,13.70
2019-05-29T18:57:13.105Z,13.61
2019-05-29T19:01:01.458Z,13.47
2019-05-29T19:03:08.389Z,13.39
2019-05-29T19:05:16.346Z,13.35
2019-05-29T19:07:23.762Z,13.26
2019-05-29T19:09:32.023Z,13.17
2019-05-29T19:11:39.636Z,13.05
2019-05-29T19:13:46.814Z,12.95
2019-05-29T19:15:55.688Z,12.87
2019-05-29T19:18:02.557Z,12.80
2019-05-29T19:20:10.792Z,12.73
2019-05-29T19:22:18.034Z,12.63
2019-05-29T19:24:24.927Z,12.55
2019-05-29T19:26:35.352Z,12.47
2019-05-29T19:28:41.415Z,12.40
2019-05-29T19:30:49.053Z,12.32
2019-05-29T19:32:56.093Z,12.23
2019-05-29T19:35:03.810Z,12.16
2019-05-29T19:37:11.712Z,12.10
2019-05-29T19:39:18.945Z,12.04
2019-05-29T19:41:26.347Z,11.99
2019-05-29T19:43:34.470Z,11.93
2019-05-29T19:45:41.408Z,11.90
2019-05-29T19:47:50.545Z,11.86
2019-05-29T19:49:58.278Z,11.83
2019-05-29T19:52:05.678Z,11.79
2019-05-29T19:54:13.533Z,11.73
2019-05-29T19:56:20.102Z,11.69
2019-05-29T19:58:27.752Z,11.65
2019-05-29T20:00:34.609Z,11.60
2019-05-29T20:02:42.151Z,11.54
2019-05-29T20:04:50.696Z,11.50
2019-05-29T20:06:57.839Z,11.44
2019-05-29T20:09:10.197Z,11.39
2019-05-29T20:11:16.958Z,11.37
2019-05-29T20:13:24.658Z,11.29
2019-05-29T20:15:31.935Z,11.20
2019-05-29T20:17:38.978Z,11.13
2019-05-29T20:19:51.310Z,11.10
2019-05-29T20:21:58.416Z,11.07
2019-05-29T20:24:05.366Z,11.03
2019-05-29T20:26:12.268Z,10.95
2019-05-29T20:28:19.537Z,10.87
2019-05-29T20:30:30.403Z,10.81
2019-05-29T20:32:38.980Z,10.76
2019-05-29T20:34:46.317Z,10.71
2019-05-29T20:36:53.050Z,10.71
2019-05-29T20:39:00.252Z,10.69
2019-05-29T20:41:08.807Z,10.68
2019-05-29T20:43:15.951Z,10.68
2019-05-29T20:45:22.660Z,10.66
2019-05-29T20:47:29.872Z,10.62
2019-05-29T20:49:38.136Z,10.58
2019-05-29T20:51:45.681Z,10.53
2019-05-29T20:53:52.785Z,10.48
2019-05-29T20:55:59.434Z,10.40
2019-05-29T20:58:23.653Z,10.33
2019-05-29T21:00:18.918Z,10.28
2019-05-29T21:02:26.728Z,10.23
2019-05-29T21:04:34.503Z,10.18
2019-05-29T21:06:42.698Z,10.12
2019-05-29T21:08:50.430Z,10.06
2019-05-29T21:10:57.017Z,10.01
2019-05-29T21:13:03.970Z,10.00
2019-05-29T21:15:11.563Z,9.98
2019-05-29T21:17:18.636Z,9.95
2019-05-29T21:19:25.382Z,9.90
2019-05-29T21:21:32.136Z,9.85
2019-05-29T21:23:40.366Z,9.81
2019-05-29T21:25:47.589Z,9.77
2019-05-29T21:27:56.105Z,9.73
2019-05-29T21:30:05.785Z,9.71
2019-05-29T21:32:12.732Z,9.68
2019-05-29T21:34:19.654Z,9.67
2019-05-29T21:36:28.196Z,9.64
2019-05-29T21:38:36.036Z,9.60
2019-05-29T21:40:43.087Z,9.56
2019-05-29T21:42:49.878Z,9.48
2019-05-29T21:44:56.591Z,9.42
2019-05-29T21:47:03.652Z,9.36
2019-05-29T21:49:10.669Z,9.32
2019-05-29T21:51:20.089Z,9.26
2019-05-29T21:53:26.985Z,9.24
2019-05-29T21:55:33.576Z,9.24
2019-05-29T21:57:43.949Z,9.23
2019-05-29T21:59:49.113Z,9.22
2019-05-29T22:01:57.426Z,9.18
2019-05-29T22:04:04.157Z,9.17
2019-05-29T22:06:10.901Z,9.12
2019-05-29T22:08:19.600Z,9.08
2019-05-29T22:10:26.846Z,9.06
2019-05-29T22:12:33.674Z,9.02
2019-05-29T22:14:40.803Z,8.98
2019-05-29T22:16:47.565Z,8.94
2019-05-29T22:18:55.016Z,8.89
2019-05-29T22:21:02.023Z,8.85
2019-05-29T22:23:08.814Z,8.82
2019-05-29T22:25:15.767Z,8.76
2019-05-29T22:27:22.751Z,8.74
2019-05-29T22:29:29.437Z,8.72
2019-05-29T22:31:35.892Z,8.67
2019-05-29T22:33:42.532Z,8.67
2019-05-29T22:35:49.271Z,8.63
2019-05-29T22:37:55.959Z,8.60
2019-05-29T22:40:02.844Z,8.58
2019-05-29T22:42:11.080Z,8.57
2019-05-29T22:44:18.397Z,8.53
2019-05-29T22:46:25.103Z,8.51
2019-05-29T22:48:31.880Z,8.46
2019-05-29T22:50:38.791Z,8.42
2019-05-29T22:52:45.611Z,8.40
2019-05-29T22:54:54.314Z,8.36
2019-05-29T22:57:02.150Z,8.28
2019-05-29T22:59:09.223Z,8.23
2019-05-29T23:01:16.066Z,8.27
2019-05-29T23:03:22.931Z,8.17
2019-05-29T23:05:31.029Z,8.15
2019-05-29T23:07:37.938Z,8.09
2019-05-29T23:09:48.388Z,8.03
2019-05-29T23:11:56.260Z,8.05
2019-05-29T23:14:03.042Z,7.98
2019-05-29T23:16:10.254Z,7.93
2019-05-29T23:18:17.047Z,7.91
2019-05-29T23:20:24.159Z,7.90
2019-05-29T23:22:31.195Z,7.85
2019-05-29T23:24:37.890Z,7.84
2019-05-29T23:26:45.709Z,7.81
2019-05-29T23:28:52.822Z,7.75
2019-05-29T23:31:01.054Z,7.69
2019-05-29T23:33:08.130Z,7.65
2019-05-29T23:35:16.503Z,7.60
2019-05-29T23:37:23.380Z,7.63
2019-05-29T23:39:29.974Z,7.57
2019-05-29T23:41:37.301Z,7.56
2019-05-29T23:43:44.412Z,7.50
2019-05-29T23:45:53.279Z,7.50
2019-05-29T23:48:02.313Z,7.60
2019-05-29T23:50:10.838Z,7.63
2019-05-29T23:52:18.122Z,7.56
2019-05-29T23:54:24.868Z,7.56
2019-05-29T23:56:31.448Z,7.51
2019-05-29T23:58:38.175Z,7.46
